Time;durP1;ratioP1;P1;durP2;ratioP2;P2;SDS_P1;SDS_P2;PMS_P1;PMS_P2;Temp;Humidity;BMP_temperature;BMP_pressure;BME280_temperature;BME280_humidity;BME280_pressure;Samples;Min_cycle;Max_cycle;Signal;HPM_P1;HPM_P2
2021/07/04 00:01:07;;;;;;;7.82;1.70;;;;;;;12.95;100.00;100310.69;5000058;28;20108;-80
2021/07/04 00:03:32;;;;;;;7.13;2.03;;;;;;;12.85;100.00;100309.31;5000249;28;20022;-80
2021/07/04 00:05:58;;;;;;;5.05;1.63;;;;;;;12.81;100.00;100307.72;4982829;28;20030;-80
2021/07/04 00:08:24;;;;;;;5.60;2.10;;;;;;;12.83;100.00;100306.72;5000277;28;20554;-80
2021/07/04 00:10:52;;;;;;;5.40;1.75;;;;;;;12.88;100.00;100304.84;4982301;28;20030;-80
2021/07/04 00:13:18;;;;;;;5.15;1.95;;;;;;;12.87;100.00;100302.31;5000797;28;20439;-80
2021/07/04 00:15:44;;;;;;;4.72;1.60;;;;;;;12.87;100.00;100297.94;4982638;28;20026;-80
2021/07/04 00:18:12;;;;;;;4.13;1.63;;;;;;;12.78;100.00;100303.44;4999691;28;20026;-80
2021/07/04 00:20:39;;;;;;;4.70;1.73;;;;;;;12.73;100.00;100304.47;5000163;28;20497;-80
2021/07/04 00:23:05;;;;;;;4.43;1.80;;;;;;;12.66;100.00;100301.22;4999658;28;20030;-80
2021/07/04 00:25:30;;;;;;;5.63;2.10;;;;;;;12.60;100.00;100299.66;4982634;28;20076;-80
2021/07/04 00:27:57;;;;;;;4.95;1.83;;;;;;;12.57;100.00;100299.75;4999585;28;20036;-80
2021/07/04 00:30:23;;;;;;;4.65;1.70;;;;;;;12.53;100.00;100292.06;4999692;28;20026;-80
2021/07/04 00:32:49;;;;;;;6.57;1.95;;;;;;;12.51;100.00;100297.34;4981779;28;20018;-81
2021/07/04 00:35:19;;;;;;;4.70;2.05;;;;;;;12.54;100.00;100291.19;4981631;28;20026;-81
2021/07/04 00:37:46;;;;;;;7.20;2.00;;;;;;;12.56;100.00;100292.84;4982011;28;20076;-81
2021/07/04 00:40:12;;;;;;;5.95;2.17;;;;;;;12.56;100.00;100290.25;4982023;28;20487;-80
2021/07/04 00:42:39;;;;;;;5.85;2.25;;;;;;;12.56;100.00;100289.38;4999535;28;20036;-80
2021/07/04 00:45:10;;;;;;;6.45;2.25;;;;;;;12.57;100.00;100283.28;4999591;28;20035;-80
2021/07/04 00:47:35;;;;;;;5.00;2.03;;;;;;;12.54;100.00;100275.59;4999874;28;20548;-80
2021/07/04 00:50:01;;;;;;;6.03;2.50;;;;;;;12.56;100.00;100279.84;4999335;28;20038;-80
2021/07/04 00:52:26;;;;;;;4.53;2.20;;;;;;;12.62;100.00;100281.38;4999386;28;20032;-80
2021/07/04 00:54:51;;;;;;;6.13;2.10;;;;;;;12.62;100.00;100276.19;4999086;28;20033;-80
2021/07/04 00:57:17;;;;;;;6.25;2.35;;;;;;;12.64;100.00;100275.25;4999182;28;20034;-80
2021/07/04 00:59:42;;;;;;;5.30;2.28;;;;;;;12.71;100.00;100275.03;4981929;28;20034;-80
2021/07/04 01:02:07;;;;;;;6.20;2.65;;;;;;;12.74;100.00;100270.59;4999728;28;20033;-80
2021/07/04 01:04:33;;;;;;;5.80;2.70;;;;;;;12.80;100.00;100277.34;4981712;28;20027;-80
2021/07/04 01:06:58;;;;;;;5.82;2.72;;;;;;;12.80;100.00;100278.19;4999543;28;20026;-80
2021/07/04 01:09:23;;;;;;;6.60;2.22;;;;;;;12.86;100.00;100274.56;4981819;28;20144;-81
2021/07/04 01:11:50;;;;;;;5.60;2.60;;;;;;;12.92;100.00;100279.56;4999391;28;20022;-80
2021/07/04 01:14:16;;;;;;;6.15;2.33;;;;;;;12.95;100.00;100276.88;4999251;28;20023;-80
2021/07/04 01:16:42;;;;;;;7.95;2.40;;;;;;;12.97;100.00;100269.88;4982308;28;20034;-80
2021/07/04 01:19:08;;;;;;;5.90;2.80;;;;;;;12.96;100.00;100270.78;4981733;28;20027;-80
2021/07/04 01:21:36;;;;;;;6.43;2.47;;;;;;;12.96;100.00;100273.38;4982849;28;20117;-80
2021/07/04 01:24:02;;;;;;;6.53;2.83;;;;;;;12.86;100.00;100274.56;4981015;28;20150;-80
2021/07/04 01:26:27;;;;;;;7.00;2.70;;;;;;;12.83;100.00;100270.28;4998611;28;20065;-80
2021/07/04 01:28:53;;;;;;;4.90;2.40;;;;;;;12.83;100.00;100272.06;4998689;28;20035;-80
2021/07/04 01:31:18;;;;;;;5.63;2.50;;;;;;;12.80;100.00;100269.53;4981060;28;20030;-80
2021/07/04 01:33:43;;;;;;;6.78;2.40;;;;;;;12.69;100.00;100267.31;4980685;28;20026;-80
2021/07/04 01:36:12;;;;;;;6.00;2.80;;;;;;;12.67;100.00;100269.94;4998504;28;20498;-80
2021/07/04 01:38:37;;;;;;;5.43;2.83;;;;;;;12.71;100.00;100267.25;4998641;28;20031;-80
2021/07/04 01:41:03;;;;;;;5.70;2.38;;;;;;;12.72;100.00;100263.75;4998034;28;20367;-80
2021/07/04 01:43:28;;;;;;;6.30;2.63;;;;;;;12.66;100.00;100260.44;4980665;28;20113;-80
2021/07/04 01:45:53;;;;;;;6.57;3.03;;;;;;;12.64;100.00;100257.03;4980969;28;20494;-80
2021/07/04 01:48:19;;;;;;;5.40;2.42;;;;;;;12.63;100.00;100252.72;4998425;28;20153;-80
2021/07/04 01:50:47;;;;;;;7.30;2.80;;;;;;;12.62;100.00;100252.75;4981031;28;20018;-80
2021/07/04 01:53:14;;;;;;;5.43;2.70;;;;;;;12.62;100.00;100248.44;4998359;28;20117;-80
2021/07/04 01:55:39;;;;;;;7.50;2.75;;;;;;;12.62;100.00;100250.16;4980895;28;20462;-80
2021/07/04 01:58:05;;;;;;;5.97;2.83;;;;;;;12.66;100.00;100241.38;4998436;28;20038;-80
2021/07/04 02:00:33;;;;;;;5.13;2.35;;;;;;;12.70;100.00;100245.56;4980706;28;20097;-80
2021/07/04 02:03:04;;;;;;;6.18;2.45;;;;;;;12.70;100.00;100234.31;5001162;23;20046;-87
2021/07/04 02:05:29;;;;;;;5.45;2.50;;;;;;;12.73;100.00;100240.28;4977575;28;20069;-86
2021/07/04 02:07:55;;;;;;;5.43;2.55;;;;;;;12.74;100.00;100239.34;4977563;28;20046;-86
2021/07/04 02:10:26;;;;;;;6.60;2.65;;;;;;;12.75;100.00;100242.84;4977533;28;20513;-87
2021/07/04 02:12:51;;;;;;;6.97;2.30;;;;;;;12.79;100.00;100242.69;4977464;28;20022;-86
2021/07/04 02:15:29;;;;;;;6.45;2.63;;;;;;;12.79;100.00;100241.84;4977296;28;20025;-87
2021/07/04 02:17:54;;;;;;;6.15;2.58;;;;;;;12.73;100.00;100247.22;4977441;28;20030;-86
2021/07/04 02:20:40;;;;;;;7.28;3.03;;;;;;;12.72;100.00;100245.53;4977545;28;20025;-86
2021/07/04 02:23:09;;;;;;;5.07;2.38;;;;;;;12.69;100.00;100243.88;4977433;28;20530;-86
2021/07/04 02:25:36;;;;;;;5.85;3.08;;;;;;;12.67;100.00;100243.06;4977071;28;20053;-87
2021/07/04 02:28:03;;;;;;;5.97;2.45;;;;;;;12.67;100.00;100243.91;4977325;28;20018;-87
2021/07/04 02:30:29;;;;;;;5.60;2.42;;;;;;;12.70;100.00;100240.38;4977986;28;20108;-86
2021/07/04 02:32:55;;;;;;;5.03;2.25;;;;;;;12.79;100.00;100241.84;4977079;28;20053;-87
2021/07/04 02:35:21;;;;;;;5.93;2.95;;;;;;;12.93;100.00;100243.97;4977089;28;20026;-87
2021/07/04 02:37:47;;;;;;;5.15;2.30;;;;;;;13.02;100.00;100244.53;4977069;28;20026;-87
2021/07/04 02:40:13;;;;;;;5.28;2.10;;;;;;;13.07;100.00;100245.22;4977474;28;20048;-87
2021/07/04 02:42:39;;;;;;;5.82;2.13;;;;;;;13.02;100.00;100241.94;4977461;28;20496;-87
2021/07/04 02:45:06;;;;;;;5.00;1.88;;;;;;;13.03;100.00;100240.19;4976915;28;20038;-87
2021/07/04 02:47:31;;;;;;;6.68;2.25;;;;;;;13.05;100.00;100247.03;4977661;28;20069;-87
2021/07/04 02:49:57;;;;;;;5.10;2.50;;;;;;;13.04;100.00;100244.47;4976942;28;20022;-88
2021/07/04 02:52:22;;;;;;;6.10;2.40;;;;;;;13.01;100.00;100247.19;4977181;28;20085;-87
2021/07/04 02:54:48;;;;;;;4.40;2.08;;;;;;;13.04;100.00;100237.50;4976850;28;20023;-87
2021/07/04 02:57:13;;;;;;;7.07;2.28;;;;;;;13.03;100.00;100241.03;4976829;28;20027;-88
2021/07/04 02:59:39;;;;;;;4.97;1.90;;;;;;;13.00;100.00;100241.13;4977565;28;20037;-87
2021/07/04 03:02:04;;;;;;;5.25;2.00;;;;;;;12.99;100.00;100241.16;4976504;28;20121;-87
2021/07/04 03:04:29;;;;;;;5.72;2.40;;;;;;;12.97;100.00;100246.44;4976706;28;20027;-87
2021/07/04 03:06:57;;;;;;;6.25;2.20;;;;;;;13.02;100.00;100247.16;4977207;28;20026;-87
2021/07/04 03:09:22;;;;;;;5.15;2.10;;;;;;;13.13;100.00;100242.41;4976628;28;20478;-88
2021/07/04 03:11:47;;;;;;;4.40;1.95;;;;;;;13.21;100.00;100249.09;4977013;28;20029;-87
2021/07/04 03:14:13;;;;;;;5.40;2.25;;;;;;;13.24;100.00;100251.59;4977163;28;20026;-88
2021/07/04 03:16:39;;;;;;;6.40;1.90;;;;;;;13.26;100.00;100249.84;4976616;28;20026;-87
2021/07/04 03:19:04;;;;;;;5.65;2.30;;;;;;;13.27;100.00;100244.59;4976969;28;20033;-88
2021/07/04 03:21:29;;;;;;;5.97;2.47;;;;;;;13.25;100.00;100249.00;4976700;28;20390;-88
2021/07/04 03:23:55;;;;;;;5.78;2.30;;;;;;;13.28;100.00;100238.47;4976315;28;20080;-88
2021/07/04 03:26:21;;;;;;;5.88;2.22;;;;;;;13.37;100.00;100236.47;4977249;28;20033;-88
2021/07/04 03:28:46;;;;;;;6.45;2.15;;;;;;;13.38;100.00;100241.59;4993808;28;20030;-88
2021/07/04 03:31:12;;;;;;;7.35;2.42;;;;;;;13.41;100.00;100233.69;4976525;28;20479;-88
2021/07/04 03:33:38;;;;;;;6.43;2.20;;;;;;;13.38;100.00;100236.38;4976580;28;20037;-88
2021/07/04 03:36:04;;;;;;;5.85;2.60;;;;;;;13.38;100.00;100233.78;4976305;28;20015;-88
2021/07/04 03:38:30;;;;;;;7.05;2.78;;;;;;;13.40;100.00;100238.97;4977126;28;20080;-88
2021/07/04 03:40:56;;;;;;;5.22;2.42;;;;;;;13.44;100.00;100237.94;4976333;28;20023;-88
2021/07/04 03:43:21;;;;;;;5.80;2.60;;;;;;;13.41;100.00;100236.28;4976264;28;20077;-87
2021/07/04 03:45:47;;;;;;;8.48;2.58;;;;;;;13.43;100.00;100234.47;4976342;28;20025;-88
2021/07/04 03:48:12;;;;;;;5.15;2.10;;;;;;;13.43;100.00;100237.09;4976635;28;20026;-88
2021/07/04 03:50:38;;;;;;;5.40;2.42;;;;;;;13.45;100.00;100234.41;4976310;28;20054;-88
2021/07/04 03:53:03;;;;;;;5.03;2.40;;;;;;;13.46;100.00;100234.38;4977031;28;20451;-88
2021/07/04 03:55:30;;;;;;;5.28;2.40;;;;;;;13.55;100.00;100236.66;4976757;28;20061;-88
2021/07/04 03:57:55;;;;;;;5.15;2.10;;;;;;;13.65;100.00;100233.72;4977012;28;20042;-88
2021/07/04 04:00:21;;;;;;;5.20;2.10;;;;;;;13.76;100.00;100240.25;4976321;28;20513;-87
2021/07/04 04:02:47;;;;;;;4.95;2.03;;;;;;;13.85;100.00;100238.19;4976473;28;20480;-87
2021/07/04 04:05:13;;;;;;;5.65;2.30;;;;;;;13.91;100.00;100236.19;4993770;28;20027;-88
2021/07/04 04:07:38;;;;;;;5.97;2.13;;;;;;;14.01;100.00;100244.56;4976834;28;20030;-88
2021/07/04 04:10:06;;;;;;;6.15;2.70;;;;;;;14.11;100.00;100242.44;4976075;28;20096;-88
2021/07/04 04:12:32;;;;;;;5.75;2.58;;;;;;;14.16;100.00;100236.16;4976192;28;20026;-88
2021/07/04 04:15:00;;;;;;;6.20;2.40;;;;;;;14.30;100.00;100240.81;4976150;28;20474;-88
2021/07/04 04:17:29;;;;;;;5.15;2.40;;;;;;;14.36;100.00;100237.97;4976068;28;20038;-87
2021/07/04 04:19:54;;;;;;;6.32;2.05;;;;;;;14.52;100.00;100243.47;4976393;28;20492;-88
2021/07/04 04:22:20;;;;;;;4.40;2.00;;;;;;;14.61;100.00;100243.09;4976248;28;20031;-88
2021/07/04 04:24:46;;;;;;;4.70;2.13;;;;;;;14.72;100.00;100234.88;4975777;28;20027;-88
2021/07/04 04:27:12;;;;;;;5.38;2.13;;;;;;;14.76;100.00;100240.81;4976017;28;20026;-88
2021/07/04 04:29:37;;;;;;;7.47;2.67;;;;;;;14.86;100.00;100229.91;4976064;28;20022;-88
2021/07/04 04:32:03;;;;;;;6.07;2.47;;;;;;;15.05;100.00;100239.59;4979304;28;20026;-88
2021/07/04 04:34:29;;;;;;;4.80;2.10;;;;;;;15.12;100.00;100239.28;4979980;28;20524;-88
2021/07/04 04:36:54;;;;;;;4.95;2.25;;;;;;;15.19;100.00;100232.03;4979506;28;20030;-88
2021/07/04 04:39:20;;;;;;;5.85;2.58;;;;;;;15.34;100.00;100244.44;4979175;28;20018;-88
2021/07/04 04:41:47;;;;;;;5.32;2.13;;;;;;;15.44;100.00;100239.66;4979270;28;20041;-88
2021/07/04 04:44:12;;;;;;;8.57;2.40;;;;;;;15.52;100.00;100237.56;4979347;28;20054;-88
2021/07/04 04:46:38;;;;;;;7.95;2.60;;;;;;;15.59;100.00;100232.91;4980242;28;20064;-88
2021/07/04 04:49:03;;;;;;;4.72;2.42;;;;;;;15.69;100.00;100234.22;4979043;28;20061;-88
2021/07/04 04:51:28;;;;;;;5.18;2.35;;;;;;;15.81;100.00;100238.91;4979188;28;20026;-88
2021/07/04 04:53:54;;;;;;;5.68;2.50;;;;;;;15.89;100.00;100246.44;4979870;28;20073;-88
2021/07/04 04:56:19;;;;;;;5.35;2.33;;;;;;;15.98;100.00;100240.78;4979048;28;20057;-88
2021/07/04 04:58:44;;;;;;;5.07;2.40;;;;;;;16.13;100.00;100241.81;4978789;28;20120;-88
2021/07/04 05:01:10;;;;;;;6.18;2.50;;;;;;;16.30;100.00;100231.41;4978539;28;20033;-88
2021/07/04 05:03:35;;;;;;;5.88;2.22;;;;;;;16.97;100.00;100231.72;4978830;28;20026;-88
2021/07/04 05:06:01;;;;;;;5.88;2.53;;;;;;;17.37;97.12;100230.56;4979406;28;20037;-88
2021/07/04 05:08:26;;;;;;;5.82;2.90;;;;;;;17.82;93.70;100225.59;4979033;28;20126;-88
2021/07/04 05:10:52;;;;;;;5.03;2.60;;;;;;;18.33;88.85;100223.72;4978587;28;20093;-88
2021/07/04 05:13:18;;;;;;;4.75;2.30;;;;;;;18.51;90.17;100220.03;4978288;28;20030;-88
2021/07/04 05:15:43;;;;;;;6.25;2.70;;;;;;;18.64;87.66;100222.81;4978624;28;20015;-88
2021/07/04 05:18:09;;;;;;;5.10;2.22;;;;;;;18.68;86.63;100218.22;4978569;28;20478;-88
2021/07/04 05:20:35;;;;;;;6.82;2.47;;;;;;;19.11;85.06;100213.97;4978326;28;20395;-88
2021/07/04 05:23:00;;;;;;;7.38;2.28;;;;;;;19.06;82.61;100210.78;4978676;28;20018;-88
2021/07/04 05:25:26;;;;;;;7.70;2.67;;;;;;;18.85;83.24;100213.72;4978646;28;20497;-88
2021/07/04 05:27:51;;;;;;;7.20;2.35;;;;;;;19.20;81.78;100215.22;4978265;28;20146;-87
2021/07/04 05:30:17;;;;;;;6.43;2.40;;;;;;;19.48;80.26;100212.59;4978242;28;20108;-87
2021/07/04 05:32:42;;;;;;;5.15;2.20;;;;;;;19.69;78.68;100214.91;4978183;28;20026;-87
2021/07/04 05:35:08;;;;;;;5.03;2.33;;;;;;;19.76;78.79;100219.69;4995902;28;20109;-87
2021/07/04 05:37:34;;;;;;;6.40;2.40;;;;;;;19.79;77.72;100210.75;4977995;28;20030;-87
2021/07/04 05:40:02;;;;;;;4.75;2.20;;;;;;;19.95;77.48;100208.88;4978131;28;20482;-87
2021/07/04 05:42:28;;;;;;;6.60;2.30;;;;;;;20.37;77.46;100211.50;4978594;28;20117;-88
2021/07/04 05:44:53;;;;;;;8.77;2.95;;;;;;;20.19;76.97;100210.88;4977972;28;20113;-87
2021/07/04 05:47:18;;;;;;;8.98;4.40;;;;;;;20.12;77.56;100215.69;4978795;28;20034;-87
2021/07/04 05:49:44;;;;;;;7.00;2.90;;;;;;;20.35;75.69;100216.88;4978705;28;20530;-87
2021/07/04 05:52:09;;;;;;;8.30;4.40;;;;;;;20.24;77.09;100209.66;4978345;28;20029;-87
2021/07/04 05:54:35;;;;;;;12.32;6.85;;;;;;;20.28;75.89;100202.41;4977795;28;20481;-88
2021/07/04 05:57:00;;;;;;;8.20;3.03;;;;;;;20.35;74.10;100208.97;4978088;28;20022;-88
2021/07/04 05:59:25;;;;;;;6.53;1.95;;;;;;;20.15;76.10;100204.97;4977823;28;20062;-87
2021/07/04 06:01:51;;;;;;;5.15;2.30;;;;;;;20.29;74.93;100204.09;4977747;28;20030;-87
2021/07/04 06:04:16;;;;;;;5.82;2.30;;;;;;;20.35;75.28;100205.47;4978270;28;20026;-88
2021/07/04 06:06:41;;;;;;;4.10;2.03;;;;;;;20.54;73.77;100207.81;4977947;28;20030;-87
2021/07/04 06:09:07;;;;;;;6.05;2.30;;;;;;;20.41;75.42;100205.06;4977530;28;20458;-87
2021/07/04 06:11:32;;;;;;;5.10;2.30;;;;;;;20.50;75.74;100201.00;4977570;28;20402;-87
2021/07/04 06:13:57;;;;;;;5.20;2.45;;;;;;;20.74;74.22;100199.44;4977736;28;20069;-87
2021/07/04 06:16:23;;;;;;;4.25;2.08;;;;;;;20.39;75.39;100204.34;4977503;28;20034;-87
2021/07/04 06:18:48;;;;;;;6.45;2.33;;;;;;;20.60;74.74;100207.41;4977594;28;20054;-87
2021/07/04 06:21:13;;;;;;;4.50;2.20;;;;;;;20.50;75.48;100206.28;4978624;28;20046;-87
2021/07/04 06:23:39;;;;;;;5.10;2.45;;;;;;;20.95;74.73;100206.84;4977668;28;20026;-88
2021/07/04 06:26:04;;;;;;;5.07;2.38;;;;;;;20.81;73.33;100207.75;4977534;28;20536;-87
2021/07/04 06:28:30;;;;;;;5.05;2.58;;;;;;;20.95;74.42;100205.06;4977254;28;20023;-88
2021/07/04 06:30:55;;;;;;;6.20;2.22;;;;;;;20.91;73.17;100207.06;4977785;28;20445;-87
2021/07/04 06:33:20;;;;;;;5.07;2.17;;;;;;;20.72;72.02;100196.06;4977098;28;20045;-87
2021/07/04 06:35:46;;;;;;;5.65;2.60;;;;;;;20.19;74.70;100201.19;4977122;28;20030;-87
2021/07/04 06:38:11;;;;;;;4.80;2.30;;;;;;;21.08;71.64;100199.81;4977080;28;20479;-87
2021/07/04 06:40:36;;;;;;;5.40;2.40;;;;;;;20.79;70.89;100196.50;4977093;28;20026;-87
2021/07/04 06:43:02;;;;;;;3.97;2.00;;;;;;;20.94;71.02;100195.47;4976971;28;20022;-88
2021/07/04 06:45:27;;;;;;;5.53;2.80;;;;;;;21.12;70.47;100202.13;4977788;28;20022;-88
2021/07/04 06:47:52;;;;;;;5.38;2.63;;;;;;;21.46;69.28;100197.22;4976886;28;20029;-88
2021/07/04 06:50:19;;;;;;;4.88;2.50;;;;;;;21.39;71.60;100198.56;4976786;28;20026;-89
2021/07/04 06:52:46;;;;;;;4.78;1.92;;;;;;;21.06;71.26;100194.66;4976136;28;20022;-88
2021/07/04 06:55:12;;;;;;;5.53;2.40;;;;;;;21.78;67.70;100197.59;4977250;28;20053;-87
2021/07/04 06:57:38;;;;;;;8.77;2.92;;;;;;;20.97;71.10;100191.75;4976888;28;20486;-86
2021/07/04 07:00:12;;;;;;;5.20;2.20;;;;;;;21.42;69.29;100198.38;4976677;28;20541;-85
2021/07/04 07:02:38;;;;;;;;;;;;;;;21.67;68.16;100199.28;4977059;28;20033;-87
2021/07/04 07:05:05;;;;;;;7.13;2.30;;;;;;;22.17;67.67;100203.66;4993996;28;19914;-88
2021/07/04 07:07:31;;;;;;;5.78;2.33;;;;;;;21.73;68.09;100199.69;4976606;28;20030;-87
2021/07/04 07:09:56;;;;;;;7.97;2.90;;;;;;;21.36;70.49;100199.63;4976681;28;20113;-88
2021/07/04 07:12:21;;;;;;;5.78;2.40;;;;;;;20.88;70.49;100194.09;4976846;28;20463;-87
2021/07/04 07:14:47;;;;;;;5.45;2.50;;;;;;;21.14;71.98;100191.47;4977315;28;20084;-85
2021/07/04 07:17:12;;;;;;;6.25;2.30;;;;;;;21.14;72.35;100183.56;4976470;28;20550;-85
2021/07/04 07:19:37;;;;;;;5.95;2.30;;;;;;;21.03;71.37;100186.06;4976485;28;20026;-86
2021/07/04 07:22:03;;;;;;;6.20;2.53;;;;;;;20.87;71.86;100194.19;4976443;28;20068;-88
2021/07/04 07:24:29;;;;;;;9.07;2.60;;;;;;;21.12;71.97;100186.31;4977050;28;20031;-86
2021/07/04 07:26:54;;;;;;;6.25;2.30;;;;;;;21.05;69.74;100187.66;4994061;28;20034;-87
2021/07/04 07:29:19;;;;;;;8.75;2.55;;;;;;;21.31;71.03;100193.81;4976652;28;20042;-83
2021/07/04 07:31:45;;;;;;;6.97;2.42;;;;;;;21.77;69.27;100197.72;4979514;28;20109;-83
2021/07/04 07:34:10;;;;;;;8.43;2.58;;;;;;;22.32;67.58;100190.28;4979201;28;20496;-83
2021/07/04 07:36:36;;;;;;;6.22;2.38;;;;;;;21.74;68.93;100190.00;4979875;28;20040;-83
2021/07/04 07:39:02;;;;;;;6.57;2.38;;;;;;;22.58;66.80;100191.00;4976495;28;20053;-83
2021/07/04 07:41:27;;;;;;;4.60;2.40;;;;;;;22.43;66.20;100185.88;4993902;28;20022;-83
2021/07/04 07:43:52;;;;;;;6.88;2.90;;;;;;;22.90;63.41;100183.28;4977565;28;20022;-84
2021/07/04 07:46:18;;;;;;;8.00;2.53;;;;;;;22.56;64.96;100187.63;4994188;28;20493;-83
2021/07/04 07:48:43;;;;;;;5.22;2.70;;;;;;;23.29;63.70;100178.59;4976688;28;20257;-83
2021/07/04 07:51:09;;;;;;;5.45;2.60;;;;;;;23.25;65.37;100185.09;4977025;28;20058;-83
2021/07/04 07:53:35;;;;;;;5.95;2.70;;;;;;;22.51;67.75;100185.34;4993773;28;20061;-83
2021/07/04 07:56:00;;;;;;;6.22;3.10;;;;;;;22.73;66.51;100184.56;4977354;28;20015;-84
2021/07/04 07:58:25;;;;;;;5.43;2.55;;;;;;;22.11;67.58;100182.09;4993984;28;20042;-83
2021/07/04 08:00:51;;;;;;;5.32;2.65;;;;;;;22.11;69.25;100182.09;4993594;28;20065;-83
2021/07/04 08:03:16;;;;;;;6.47;2.67;;;;;;;22.28;67.40;100182.56;4975951;28;20030;-83
2021/07/04 08:05:42;;;;;;;5.38;2.75;;;;;;;23.59;63.65;100176.19;5006603;23;20046;-83
2021/07/04 08:08:07;;;;;;;6.18;2.60;;;;;;;24.00;62.45;100172.09;4985941;28;20160;-82
2021/07/04 08:10:33;;;;;;;6.13;2.85;;;;;;;25.07;57.14;100178.31;4985322;28;20394;-82
2021/07/04 08:12:58;;;;;;;5.10;2.67;;;;;;;23.98;58.54;100175.81;5002781;28;20534;-83
2021/07/04 08:15:24;;;;;;;5.68;3.20;;;;;;;24.58;56.82;100174.47;5004033;28;20027;-82
2021/07/04 08:17:49;;;;;;;6.07;3.13;;;;;;;25.03;54.51;100172.41;4987281;28;20085;-82
2021/07/04 08:20:15;;;;;;;5.75;3.03;;;;;;;24.99;57.36;100181.59;5004116;28;20023;-82
2021/07/04 08:22:41;;;;;;;5.90;2.90;;;;;;;25.56;56.56;100184.72;5005234;28;20073;-83
2021/07/04 08:25:07;;;;;;;5.82;3.20;;;;;;;25.22;54.60;100173.53;5003800;28;20026;-82
2021/07/04 08:27:33;;;;;;;7.90;3.28;;;;;;;24.61;56.60;100166.25;4987218;28;20057;-82
2021/07/04 08:30:09;;;;;;;7.25;3.10;;;;;;;24.82;56.69;100170.75;4986265;28;20026;-84
2021/07/04 08:32:34;;;;;;;7.32;3.38;;;;;;;25.51;56.70;100159.53;4998335;28;20030;-83
2021/07/04 08:35:00;;;;;;;8.65;3.90;;;;;;;24.55;55.11;100158.81;4982498;28;20021;-83
2021/07/04 08:37:25;;;;;;;7.95;3.53;;;;;;;23.51;59.14;100167.16;4984520;28;20049;-82
2021/07/04 08:39:50;;;;;;;8.38;3.50;;;;;;;23.77;58.82;100144.81;4998772;28;20030;-83
2021/07/04 08:42:17;;;;;;;7.93;3.47;;;;;;;25.88;52.60;100165.97;4981666;28;20487;-82
2021/07/04 08:44:52;;;;;;;7.80;3.40;;;;;;;25.89;53.48;100150.88;4999058;28;20082;-83
2021/07/04 08:47:18;;;;;;;7.18;3.78;;;;;;;25.63;53.22;100153.16;4997968;28;20034;-84
2021/07/04 08:49:45;;;;;;;8.18;4.18;;;;;;;25.97;51.82;100148.38;4998103;28;20100;-83
2021/07/04 08:52:11;;;;;;;7.03;3.90;;;;;;;25.99;51.57;100140.28;4998160;28;20052;-83
2021/07/04 08:54:36;;;;;;;8.85;3.92;;;;;;;25.32;53.80;100145.22;4999485;28;20479;-82
2021/07/04 08:57:02;;;;;;;6.57;4.03;;;;;;;26.26;50.25;100145.75;4982554;28;20077;-82
2021/07/04 08:59:27;;;;;;;8.23;4.57;;;;;;;25.93;49.81;100141.66;5000872;28;20030;-82
2021/07/04 09:01:53;;;;;;;5.72;3.47;;;;;;;25.98;51.49;100138.59;4983445;28;20106;-82
2021/07/04 09:04:20;;;;;;;7.13;3.85;;;;;;;25.91;52.67;100140.94;4998410;28;20049;-82
2021/07/04 09:06:48;;;;;;;7.40;3.63;;;;;;;26.81;51.36;100137.22;4984252;28;20037;-81
2021/07/04 09:09:31;;;;;;;6.57;3.95;;;;;;;26.41;50.27;100139.03;5001691;28;20383;-81
2021/07/04 09:12:03;;;;;;;7.37;4.00;;;;;;;26.30;50.62;100141.84;4983207;28;20457;-81
2021/07/04 09:14:33;;;;;;;9.13;4.65;;;;;;;25.30;48.77;100141.84;5001587;28;20022;-81
2021/07/04 09:16:59;;;;;;;9.30;4.30;;;;;;;25.37;48.66;100137.69;5000206;28;20113;-81
2021/07/04 09:19:25;;;;;;;9.85;4.43;;;;;;;25.73;49.41;100140.75;5000677;28;20092;-81
2021/07/04 09:22:11;;;;;;;6.63;3.83;;;;;;;24.88;49.73;100141.00;5000700;28;20049;-81
2021/07/04 09:24:43;;;;;;;5.93;3.67;;;;;;;25.93;50.05;100133.69;5000226;28;20081;-81
2021/07/04 09:27:14;;;;;;;7.38;4.38;;;;;;;25.05;50.48;100135.13;5001426;28;20030;-81
2021/07/04 09:29:52;;;;;;;8.75;4.25;;;;;;;24.25;51.87;100138.28;5001877;28;20031;-81
2021/07/04 09:32:20;;;;;;;7.35;4.13;;;;;;;24.10;52.25;100135.91;4999017;28;20023;-81
2021/07/04 09:35:10;;;;;;;9.60;4.40;;;;;;;24.07;52.11;100128.22;4983880;28;20379;-81
2021/07/04 09:37:39;;;;;;;8.55;4.30;;;;;;;24.34;49.59;100121.63;4971390;28;20046;-81
2021/07/04 09:40:12;;;;;;;8.13;3.90;;;;;;;24.31;50.17;100127.19;4997764;28;20461;-81
2021/07/04 09:43:16;;;;;;;7.22;4.22;;;;;;;24.12;53.07;100128.69;5001792;28;20026;-82
2021/07/04 09:45:53;;;;;;;7.70;4.10;;;;;;;23.53;53.89;100128.19;5002406;28;20524;-81
2021/07/04 09:48:36;;;;;;;6.78;3.85;;;;;;;24.23;53.56;100119.00;4984932;28;20094;-81
2021/07/04 09:51:03;;;;;;;7.63;3.90;;;;;;;23.44;57.07;100129.75;5003110;28;20030;-81
2021/07/04 09:53:33;;;;;;;6.70;4.28;;;;;;;24.12;57.58;100123.41;5001448;28;20109;-81
2021/07/04 09:56:12;;;;;;;8.43;4.15;;;;;;;24.49;54.97;100125.69;5000181;28;20049;-85
2021/07/04 09:58:40;;;;;;;7.57;4.28;;;;;;;24.13;52.77;100122.41;4981616;28;20022;-78
2021/07/04 10:01:06;;;;;;;6.95;3.80;;;;;;;24.21;54.11;100121.81;4997271;28;20034;-79
2021/07/04 10:03:31;;;;;;;7.03;4.20;;;;;;;23.93;54.54;100115.28;4997205;28;20026;-79
2021/07/04 10:06:03;;;;;;;6.43;4.07;;;;;;;24.28;56.77;100117.66;4997548;28;20101;-80
2021/07/04 10:08:40;;;;;;;7.75;4.05;;;;;;;24.69;53.29;100123.16;4979704;28;20042;-80
2021/07/04 10:11:11;;;;;;;7.25;4.28;;;;;;;24.36;52.99;100114.41;4996561;28;20045;-78
2021/07/04 10:13:39;;;;;;;8.23;4.45;;;;;;;24.64;52.46;100115.63;4996614;28;20022;-80
2021/07/04 10:16:07;;;;;;;7.65;4.28;;;;;;;24.44;52.42;100109.31;4996644;28;20033;-79
2021/07/04 10:18:33;;;;;;;8.88;4.40;;;;;;;24.76;53.51;100111.91;4996981;28;20022;-79
2021/07/04 10:20:59;;;;;;;8.40;4.55;;;;;;;24.48;54.67;100112.56;4996635;28;20076;-79
2021/07/04 10:23:27;;;;;;;8.80;4.53;;;;;;;24.33;54.06;100109.34;4997148;28;20034;-80
2021/07/04 10:25:55;;;;;;;7.55;4.13;;;;;;;24.86;54.62;100111.97;4978822;28;20023;-80
2021/07/04 10:28:29;;;;;;;8.68;4.63;;;;;;;24.64;50.58;100110.31;4995201;28;20030;-80
2021/07/04 10:30:56;;;;;;;7.72;4.38;;;;;;;25.51;48.78;100112.56;4978469;28;20031;-80
2021/07/04 10:33:32;;;;;;;8.27;4.47;;;;;;;25.22;50.02;100100.03;4979039;28;20022;-79
2021/07/04 10:36:16;;;;;;;7.13;4.30;;;;;;;24.97;51.27;100103.94;4997414;28;20022;-80
2021/07/04 10:38:44;;;;;;;8.07;4.65;;;;;;;24.31;52.91;100096.22;4996024;28;20472;-79
2021/07/04 10:41:15;;;;;;;7.82;4.45;;;;;;;24.54;53.35;100091.69;4995270;28;20033;-78
2021/07/04 10:43:47;;;;;;;7.88;4.20;;;;;;;24.10;53.76;100092.69;4995672;28;20027;-78
2021/07/04 10:46:12;;;;;;;6.85;3.88;;;;;;;24.32;54.43;100092.63;4995836;28;20026;-80
2021/07/04 10:48:53;;;;;;;6.93;4.40;;;;;;;24.64;53.43;100090.91;4996509;28;20114;-79
2021/07/04 10:51:20;;;;;;;6.90;3.90;;;;;;;26.09;51.49;100082.66;4978255;28;20026;-79
2021/07/04 10:53:50;;;;;;;7.32;3.80;;;;;;;25.78;49.51;100081.91;4978808;28;20030;-78
2021/07/04 10:56:33;;;;;;;7.18;4.03;;;;;;;25.82;52.61;100078.00;4996434;28;20029;-79
2021/07/04 10:59:00;;;;;;;10.75;4.82;;;;;;;25.78;51.17;100082.72;4996249;28;20026;-79
2021/07/04 11:01:47;;;;;;;7.40;4.35;;;;;;;25.67;50.48;100075.69;4996843;28;20109;-80
2021/07/04 11:04:28;;;;;;;6.78;4.03;;;;;;;25.28;52.05;100080.09;4995187;28;20058;-88
2021/07/04 11:06:58;;;;;;;7.50;4.85;;;;;;;24.77;51.49;100081.75;4994191;28;20030;-86
2021/07/04 11:09:24;;;;;;;8.27;4.30;;;;;;;24.06;54.67;100080.66;4994224;28;20026;-85
2021/07/04 11:11:50;;;;;;;6.82;4.15;;;;;;;24.26;54.92;100081.66;4976640;28;20022;-85
2021/07/04 11:14:15;;;;;;;8.68;4.18;;;;;;;24.45;56.18;100081.00;4976658;28;20026;-86
2021/07/04 11:17:03;;;;;;;7.65;4.07;;;;;;;24.00;55.52;100073.22;4994013;28;20113;-85
2021/07/04 11:19:29;;;;;;;9.23;4.60;;;;;;;24.12;55.23;100072.22;4976518;28;20026;-86
2021/07/04 11:21:58;;;;;;;7.72;4.18;;;;;;;25.62;54.66;100069.97;4976454;28;20041;-86